createdAt,value
2017-07-17T00:01:06.508Z,6.00
2017-07-17T00:03:34.001Z,4.40
2017-07-17T00:06:01.492Z,5.30
2017-07-17T00:08:29.001Z,5.83
2017-07-17T00:10:56.492Z,5.40
2017-07-17T00:13:24.018Z,5.50
2017-07-17T00:15:51.513Z,5.60
2017-07-17T00:18:19.029Z,5.60
2017-07-17T00:20:46.524Z,5.53
2017-07-17T00:23:14.804Z,5.40
2017-07-17T00:25:42.286Z,4.83
2017-07-17T00:28:09.813Z,5.57
2017-07-17T00:30:37.308Z,5.80
2017-07-17T00:33:05.581Z,4.90
2017-07-17T00:35:33.076Z,5.90
2017-07-17T00:38:00.611Z,5.70
2017-07-17T00:40:28.097Z,5.17
2017-07-17T00:42:56.392Z,4.87
2017-07-17T00:45:23.885Z,5.90
2017-07-17T00:47:51.397Z,5.10
2017-07-17T00:50:18.886Z,5.10
2017-07-17T00:52:46.421Z,4.73
2017-07-17T00:55:13.914Z,6.33
2017-07-17T00:57:41.425Z,5.70
2017-07-17T01:00:08.913Z,5.37
2017-07-17T01:02:36.430Z,5.97
2017-07-17T01:05:03.933Z,5.10
2017-07-17T01:07:31.425Z,5.87
2017-07-17T01:09:58.933Z,5.27
2017-07-17T01:12:27.186Z,5.20
2017-07-17T01:14:54.702Z,4.73
2017-07-17T01:17:22.189Z,5.33
2017-07-17T01:19:49.732Z,5.67
2017-07-17T01:22:17.989Z,5.90
2017-07-17T01:24:45.500Z,5.50
2017-07-17T01:27:13.028Z,5.67
2017-07-17T01:29:40.552Z,5.90
2017-07-17T01:32:08.053Z,5.53
2017-07-17T01:34:37.595Z,5.43
2017-07-17T01:37:05.082Z,4.63
2017-07-17T01:39:33.364Z,4.97
2017-07-17T01:42:00.853Z,5.57
2017-07-17T01:44:28.406Z,5.20
2017-07-17T01:46:55.866Z,5.40
2017-07-17T01:49:23.393Z,5.50
2017-07-17T01:51:50.892Z,6.40
2017-07-17T01:54:18.406Z,5.60
2017-07-17T01:56:46.660Z,5.57
2017-07-17T01:59:14.933Z,6.37
2017-07-17T02:01:42.420Z,6.10
2017-07-17T02:04:09.938Z,6.17
2017-07-17T02:06:37.433Z,6.33
2017-07-17T02:09:04.960Z,7.07
2017-07-17T02:11:32.466Z,6.70
2017-07-17T02:13:59.969Z,6.60
2017-07-17T02:16:27.493Z,7.07
2017-07-17T02:18:55.000Z,6.37
2017-07-17T02:21:22.519Z,6.20
2017-07-17T02:23:50.013Z,6.40
2017-07-17T02:26:17.648Z,6.70
2017-07-17T02:28:45.206Z,7.27
2017-07-17T02:31:12.724Z,7.03
2017-07-17T02:33:40.225Z,5.97
2017-07-17T02:36:07.745Z,6.87
2017-07-17T02:38:35.243Z,6.57
2017-07-17T02:41:02.752Z,6.87
2017-07-17T02:43:30.243Z,6.10
2017-07-17T02:45:57.753Z,7.90
2017-07-17T02:48:25.240Z,6.27
2017-07-17T02:50:52.748Z,6.23
2017-07-17T02:53:20.301Z,5.70
2017-07-17T02:55:47.945Z,5.87
2017-07-17T02:58:15.443Z,6.67
2017-07-17T03:00:42.964Z,5.87
2017-07-17T03:03:10.465Z,6.40
2017-07-17T03:05:38.051Z,6.23
2017-07-17T03:08:08.985Z,6.80
2017-07-17T03:10:36.504Z,6.13
2017-07-17T03:13:04.015Z,6.53
2017-07-17T03:15:31.537Z,6.73
2017-07-17T03:17:59.875Z,6.50
2017-07-17T03:20:27.982Z,6.90
2017-07-17T03:22:55.562Z,6.93
2017-07-17T03:25:23.050Z,6.53
2017-07-17T03:27:50.565Z,7.13
2017-07-17T03:30:18.082Z,6.30
2017-07-17T03:32:45.598Z,7.00
2017-07-17T03:35:13.094Z,6.67
2017-07-17T03:37:41.332Z,7.07
2017-07-17T03:40:08.947Z,7.43
2017-07-17T03:42:36.583Z,7.33
2017-07-17T03:45:04.230Z,6.67
2017-07-17T03:47:31.755Z,6.77
2017-07-17T03:50:00.005Z,7.40
2017-07-17T03:52:27.761Z,7.57
2017-07-17T03:54:55.333Z,6.70
2017-07-17T03:57:22.840Z,8.90
2017-07-17T03:59:51.106Z,8.03
2017-07-17T04:02:19.854Z,7.40
2017-07-17T04:04:47.353Z,7.63
2017-07-17T04:07:14.836Z,8.10
2017-07-17T04:09:42.369Z,8.13
2017-07-17T04:12:10.669Z,8.40
2017-07-17T04:14:38.280Z,7.60
2017-07-17T04:17:05.793Z,8.70
2017-07-17T04:19:33.318Z,8.20
2017-07-17T04:22:00.822Z,10.03
2017-07-17T04:24:28.349Z,8.77
2017-07-17T04:27:01.632Z,8.57
2017-07-17T04:29:29.161Z,9.37
2017-07-17T04:31:56.674Z,8.13
2017-07-17T04:34:24.193Z,7.93
2017-07-17T04:36:51.693Z,7.90
2017-07-17T04:39:19.232Z,7.00
2017-07-17T04:41:46.769Z,7.60
2017-07-17T04:44:14.284Z,7.20
2017-07-17T04:46:41.780Z,9.27
2017-07-17T04:49:09.286Z,8.10
2017-07-17T04:51:36.777Z,10.27
2017-07-17T04:54:04.337Z,10.50
2017-07-17T04:56:31.833Z,8.97
2017-07-17T04:58:59.343Z,10.10
2017-07-17T05:01:26.851Z,9.63
2017-07-17T05:03:54.569Z,9.67
2017-07-17T05:06:22.052Z,9.00
2017-07-17T05:08:50.324Z,10.73
2017-07-17T05:11:17.875Z,11.83
2017-07-17T05:13:45.389Z,9.10
2017-07-17T05:16:12.925Z,9.67
2017-07-17T05:18:41.180Z,9.40
2017-07-17T05:21:08.693Z,9.50
2017-07-17T05:23:36.179Z,9.77
2017-07-17T05:26:03.706Z,8.90
2017-07-17T05:28:31.201Z,8.60
2017-07-17T05:30:58.704Z,10.00
2017-07-17T05:33:26.964Z,8.40
2017-07-17T05:35:55.257Z,9.33
2017-07-17T05:38:22.776Z,8.37
2017-07-17T05:40:50.291Z,9.23
2017-07-17T05:43:17.793Z,8.87
2017-07-17T05:45:45.302Z,8.23
2017-07-17T05:48:13.612Z,9.20
2017-07-17T05:50:41.126Z,9.13
2017-07-17T05:53:08.620Z,8.43
2017-07-17T05:55:36.156Z,9.90
2017-07-17T05:58:03.649Z,9.90
2017-07-17T06:00:31.173Z,10.17
2017-07-17T06:02:59.431Z,9.13
2017-07-17T06:05:27.719Z,8.20
2017-07-17T06:07:55.257Z,17.93
2017-07-17T06:10:22.805Z,10.00
2017-07-17T06:12:50.336Z,10.03
2017-07-17T06:15:17.886Z,10.17
2017-07-17T06:17:45.404Z,9.90
2017-07-17T06:20:12.917Z,8.90
2017-07-17T06:22:40.440Z,9.00
2017-07-17T06:25:07.959Z,9.47
2017-07-17T06:27:35.498Z,8.70
2017-07-17T06:30:03.017Z,8.50
2017-07-17T06:32:31.313Z,9.27
2017-07-17T06:34:58.797Z,8.60
2017-07-17T06:37:26.421Z,7.93
2017-07-17T06:39:53.908Z,8.43
2017-07-17T06:42:21.449Z,8.73
2017-07-17T06:44:48.933Z,8.50
2017-07-17T06:47:16.456Z,9.30
2017-07-17T06:49:44.721Z,9.23
2017-07-17T06:52:12.257Z,9.03
2017-07-17T06:54:39.748Z,9.60
2017-07-17T06:57:07.244Z,8.33
2017-07-17T06:59:34.740Z,9.83
2017-07-17T07:02:02.271Z,9.27
2017-07-17T07:04:29.765Z,12.60
2017-07-17T07:06:57.282Z,9.00
2017-07-17T07:09:24.783Z,11.97
2017-07-17T07:11:52.281Z,11.23
2017-07-17T07:14:20.571Z,10.43
2017-07-17T07:16:48.074Z,9.97
2017-07-17T07:19:15.607Z,9.03
2017-07-17T07:21:43.109Z,10.03
2017-07-17T07:24:10.635Z,10.53
2017-07-17T07:26:38.890Z,9.73
2017-07-17T07:29:07.178Z,9.10
2017-07-17T07:31:34.668Z,8.40
2017-07-17T07:34:02.189Z,9.30
2017-07-17T07:36:29.680Z,9.10
2017-07-17T07:38:57.202Z,10.07
2017-07-17T07:41:25.470Z,9.60
2017-07-17T07:43:53.745Z,9.70
2017-07-17T07:46:21.241Z,9.00
2017-07-17T07:48:48.754Z,9.23
2017-07-17T07:51:16.244Z,9.47
2017-07-17T07:53:43.756Z,10.63
2017-07-17T07:56:11.252Z,9.83
2017-07-17T07:58:39.528Z,13.50
2017-07-17T08:01:07.025Z,13.50
2017-07-17T08:03:34.557Z,11.00
2017-07-17T08:06:02.059Z,12.07
2017-07-17T08:08:29.569Z,11.43
2017-07-17T08:10:57.061Z,11.60
2017-07-17T08:13:24.593Z,10.93
2017-07-17T08:15:52.110Z,10.10
2017-07-17T08:18:19.601Z,10.50
2017-07-17T08:20:47.115Z,10.90
2017-07-17T08:23:14.620Z,10.20
2017-07-17T08:25:42.923Z,10.37
2017-07-17T08:28:10.419Z,9.13
2017-07-17T08:30:37.935Z,10.33
2017-07-17T08:33:05.442Z,10.83
2017-07-17T08:35:32.959Z,9.70
2017-07-17T08:38:00.461Z,10.27
2017-07-17T08:40:28.519Z,9.60
2017-07-17T08:42:56.013Z,9.33
2017-07-17T08:45:23.536Z,16.67
2017-07-17T08:47:51.030Z,10.17
2017-07-17T08:50:18.550Z,9.93
2017-07-17T08:52:46.043Z,9.47
2017-07-17T08:55:13.560Z,9.80
2017-07-17T08:57:41.048Z,9.47
2017-07-17T09:00:08.573Z,9.40
2017-07-17T09:02:36.064Z,13.60
2017-07-17T09:05:03.590Z,9.97
2017-07-17T09:07:31.839Z,9.33
2017-07-17T09:09:59.349Z,9.83
2017-07-17T09:12:26.850Z,8.97
2017-07-17T09:14:54.365Z,9.27
2017-07-17T09:17:22.639Z,9.70
2017-07-17T09:19:50.135Z,7.83
2017-07-17T09:22:17.652Z,10.10
2017-07-17T09:24:45.149Z,10.00
2017-07-17T09:27:12.663Z,9.23
2017-07-17T09:29:40.156Z,10.10
2017-07-17T09:32:08.431Z,9.10
2017-07-17T09:34:35.925Z,9.90
2017-07-17T09:37:03.449Z,10.87
2017-07-17T09:39:30.941Z,10.37
2017-07-17T09:41:59.217Z,9.50
2017-07-17T09:44:26.714Z,8.70
2017-07-17T09:46:54.230Z,9.27
2017-07-17T09:49:21.748Z,9.83
2017-07-17T09:51:49.274Z,9.57
2017-07-17T09:54:17.547Z,9.80
2017-07-17T09:56:45.090Z,9.20
2017-07-17T09:59:12.605Z,9.13
2017-07-17T10:01:40.178Z,9.50
2017-07-17T10:04:07.706Z,10.27
2017-07-17T10:06:35.992Z,10.67
2017-07-17T10:09:03.493Z,9.97
2017-07-17T10:11:30.997Z,9.80
2017-07-17T10:13:58.497Z,35.17
2017-07-17T10:16:26.781Z,21.93
2017-07-17T10:18:54.361Z,11.50
2017-07-17T10:21:21.857Z,9.20
2017-07-17T10:23:49.372Z,9.90
2017-07-17T10:26:16.856Z,9.57
2017-07-17T10:28:44.385Z,10.10
2017-07-17T10:31:11.888Z,9.63
2017-07-17T10:33:39.395Z,9.27
2017-07-17T10:36:06.878Z,9.33
2017-07-17T10:38:34.389Z,10.00
2017-07-17T10:41:01.904Z,9.37
2017-07-17T10:43:29.412Z,9.70
2017-07-17T10:45:56.901Z,9.50
2017-07-17T10:48:24.408Z,9.57
2017-07-17T10:50:51.928Z,10.07
2017-07-17T10:53:19.442Z,8.43
2017-07-17T10:55:46.936Z,9.33
2017-07-17T10:58:14.449Z,9.27
2017-07-17T11:00:41.961Z,10.77
2017-07-17T11:03:09.530Z,9.90
2017-07-17T11:05:37.028Z,10.10
2017-07-17T11:08:04.629Z,10.87
2017-07-17T11:10:32.162Z,9.47
2017-07-17T11:12:59.865Z,8.93
2017-07-17T11:15:27.489Z,9.63
2017-07-17T11:17:55.142Z,8.70
2017-07-17T11:20:22.685Z,9.57
2017-07-17T11:22:57.367Z,8.80
2017-07-17T11:25:26.025Z,9.10
2017-07-17T11:27:53.525Z,8.40
2017-07-17T11:30:21.062Z,9.50
2017-07-17T11:32:48.559Z,8.87
2017-07-17T11:35:16.086Z,9.60
2017-07-17T11:37:43.880Z,8.33
2017-07-17T11:43:27.338Z,8.03
2017-07-17T11:45:54.941Z,7.23
2017-07-17T11:58:29.063Z,8.80
2017-07-17T12:00:56.573Z,8.43
2017-07-17T12:03:24.841Z,8.00
2017-07-17T12:05:52.350Z,8.20
2017-07-17T12:08:19.861Z,8.57
2017-07-17T12:10:47.366Z,8.40
2017-07-17T12:13:14.899Z,8.70
2017-07-17T12:15:42.421Z,8.80
2017-07-17T12:18:09.917Z,8.73
2017-07-17T12:20:37.429Z,9.50
2017-07-17T12:23:04.934Z,8.70
2017-07-17T12:25:32.465Z,8.63
2017-07-17T12:27:59.945Z,8.87
2017-07-17T12:30:27.443Z,8.87
2017-07-17T12:32:54.956Z,8.63
2017-07-17T12:35:23.249Z,9.43
2017-07-17T12:37:50.743Z,8.37
2017-07-17T12:40:18.249Z,15.93
2017-07-17T12:42:45.804Z,19.40
2017-07-17T12:45:13.310Z,9.70
2017-07-17T12:47:40.853Z,8.00
2017-07-17T12:50:08.846Z,8.50
2017-07-17T12:52:36.428Z,8.60
2017-07-17T12:55:03.933Z,8.83
2017-07-17T12:57:31.544Z,9.20
2017-07-17T13:00:00.068Z,8.83
2017-07-17T13:02:34.190Z,8.53
2017-07-17T13:05:01.700Z,7.70
2017-07-17T13:07:29.205Z,7.30
2017-07-17T13:09:57.228Z,8.03
2017-07-17T13:12:24.761Z,7.80
2017-07-17T13:14:52.789Z,7.00
2017-07-17T13:17:20.345Z,8.07
2017-07-17T13:19:47.852Z,7.73
2017-07-17T13:22:15.826Z,7.23
2017-07-17T13:24:43.355Z,7.73
2017-07-17T13:27:10.876Z,7.50
2017-07-17T13:29:38.403Z,7.90
2017-07-17T13:32:05.917Z,7.90
2017-07-17T13:34:33.417Z,8.33
2017-07-17T13:37:00.949Z,7.67
2017-07-17T13:39:28.456Z,7.80
2017-07-17T13:41:55.999Z,7.13
2017-07-17T13:44:23.489Z,9.20
2017-07-17T13:46:50.977Z,7.00
2017-07-17T13:49:19.265Z,7.10
2017-07-17T13:51:46.760Z,11.17
2017-07-17T13:54:14.270Z,9.37
2017-07-17T13:56:41.781Z,7.83
2017-07-17T13:59:09.334Z,7.63
2017-07-17T14:01:36.886Z,7.37
2017-07-17T14:04:04.415Z,7.93
2017-07-17T14:06:31.920Z,8.50
2017-07-17T14:08:59.437Z,8.33
2017-07-17T14:11:26.926Z,9.30
2017-07-17T14:13:55.323Z,8.07
2017-07-17T14:16:22.844Z,9.40
2017-07-17T14:18:50.357Z,8.40
2017-07-17T14:21:17.874Z,8.87
2017-07-17T14:23:46.447Z,8.57
2017-07-17T14:26:14.029Z,12.00
2017-07-17T14:28:42.318Z,41.40
2017-07-17T14:31:09.938Z,11.60
2017-07-17T14:33:37.449Z,8.97
2017-07-17T14:36:04.958Z,9.13
2017-07-17T14:38:32.812Z,10.00
2017-07-17T14:41:00.299Z,8.77
2017-07-17T14:43:27.905Z,8.47
2017-07-17T14:45:55.477Z,9.17
2017-07-17T14:48:24.386Z,9.40
2017-07-17T14:50:52.700Z,9.40
2017-07-17T14:53:20.240Z,9.20
2017-07-17T14:55:47.789Z,9.10
2017-07-17T14:58:15.305Z,8.50
2017-07-17T15:00:43.819Z,10.60
2017-07-17T15:03:11.310Z,12.60
2017-07-17T15:05:38.828Z,13.07
2017-07-17T15:08:07.297Z,12.57
2017-07-17T15:10:35.687Z,14.00
2017-07-17T15:13:03.182Z,14.77
2017-07-17T15:15:30.689Z,13.77
2017-07-17T15:17:58.179Z,13.80
2017-07-17T15:20:26.452Z,13.33
2017-07-17T15:22:54.801Z,13.27
2017-07-17T15:25:23.105Z,14.60
2017-07-17T15:27:50.612Z,14.33
2017-07-17T15:30:18.893Z,14.27
2017-07-17T15:32:46.438Z,13.27
2017-07-17T15:35:13.967Z,13.37
2017-07-17T15:37:41.472Z,13.43
2017-07-17T15:40:08.994Z,12.30
2017-07-17T15:42:36.497Z,13.20
2017-07-17T15:45:04.036Z,12.60
2017-07-17T15:47:31.552Z,12.60
2017-07-17T15:49:59.072Z,12.63
2017-07-17T15:52:26.588Z,13.17
2017-07-17T15:54:54.100Z,11.87
2017-07-17T15:57:21.612Z,12.60
2017-07-17T15:59:49.193Z,12.63
2017-07-17T16:02:16.725Z,11.80
2017-07-17T16:04:45.026Z,12.00
2017-07-17T16:07:12.543Z,10.83
2017-07-17T16:09:40.036Z,12.03
2017-07-17T16:12:07.669Z,12.63
2017-07-17T16:14:35.156Z,11.93
2017-07-17T16:17:03.443Z,11.63
2017-07-17T16:19:30.936Z,11.20
2017-07-17T16:21:58.450Z,11.47
2017-07-17T16:24:25.995Z,11.80
2017-07-17T16:26:53.520Z,11.20
2017-07-17T16:29:21.026Z,11.13
2017-07-17T16:31:49.304Z,11.80
2017-07-17T16:34:16.821Z,10.50
2017-07-17T16:36:44.329Z,16.10
2017-07-17T16:39:11.820Z,14.23
2017-07-17T16:41:40.128Z,13.27
2017-07-17T16:44:07.628Z,10.00
2017-07-17T16:46:35.900Z,10.83
2017-07-17T16:49:03.408Z,11.40
2017-07-17T16:51:30.996Z,10.27
2017-07-17T16:53:58.704Z,10.20
2017-07-17T16:56:26.224Z,9.93
2017-07-17T16:58:53.769Z,11.40
2017-07-17T17:01:21.282Z,10.43
2017-07-17T17:03:48.914Z,9.97
2017-07-17T17:06:16.418Z,10.27
2017-07-17T17:08:43.956Z,10.17
2017-07-17T17:11:11.457Z,10.97
2017-07-17T17:13:38.984Z,10.90
2017-07-17T17:16:06.509Z,16.67
2017-07-17T17:18:34.046Z,20.90
2017-07-17T17:21:02.332Z,18.10
2017-07-17T17:23:29.844Z,13.27
2017-07-17T17:25:57.349Z,12.70
2017-07-17T17:28:25.109Z,10.37
2017-07-17T17:30:52.608Z,11.63
2017-07-17T17:33:20.122Z,10.63
2017-07-17T17:35:48.393Z,10.50
2017-07-17T17:38:15.922Z,12.63
2017-07-17T17:40:43.443Z,12.70
2017-07-17T17:43:10.977Z,12.90
2017-07-17T17:45:38.468Z,12.90
2017-07-17T17:48:05.999Z,13.27
2017-07-17T17:50:33.585Z,13.13
2017-07-17T17:53:01.093Z,13.20
2017-07-17T17:55:28.609Z,13.80
2017-07-17T17:57:56.147Z,13.07
2017-07-17T18:00:23.697Z,13.33
2017-07-17T18:02:51.201Z,13.03
2017-07-17T18:05:18.734Z,13.70
2017-07-17T18:07:46.292Z,13.17
2017-07-17T18:10:13.838Z,12.23
2017-07-17T18:12:41.394Z,13.23
2017-07-17T18:15:08.921Z,12.30
2017-07-17T18:17:36.508Z,13.17
2017-07-17T18:20:04.053Z,12.07
2017-07-17T18:22:31.544Z,13.30
2017-07-17T18:24:59.911Z,12.67
2017-07-17T18:27:27.396Z,12.27
2017-07-17T18:29:54.913Z,12.93
2017-07-17T18:32:22.483Z,15.47
2017-07-17T18:34:50.056Z,27.60
2017-07-17T18:37:17.571Z,12.70
2017-07-17T18:39:45.094Z,12.80
2017-07-17T18:42:12.596Z,12.07
2017-07-17T18:44:40.203Z,11.10
2017-07-17T18:47:07.697Z,12.53
2017-07-17T18:49:35.260Z,12.87
2017-07-17T18:52:02.785Z,12.30
2017-07-17T18:54:30.319Z,11.53
2017-07-17T18:56:57.844Z,12.70
2017-07-17T18:59:25.357Z,13.03
2017-07-17T19:01:52.879Z,14.00
2017-07-17T19:04:20.392Z,12.13
2017-07-17T19:06:47.946Z,11.50
2017-07-17T19:09:15.451Z,12.60
2017-07-17T19:11:43.813Z,12.30
2017-07-17T19:14:11.336Z,11.97
2017-07-17T19:16:38.946Z,12.33
2017-07-17T19:19:06.469Z,11.33
2017-07-17T19:21:34.016Z,11.97
2017-07-17T19:24:01.522Z,12.83
2017-07-17T19:26:29.043Z,11.93
2017-07-17T19:28:56.552Z,11.37
2017-07-17T19:31:24.065Z,12.10
2017-07-17T19:33:51.591Z,13.07
2017-07-17T19:36:19.134Z,12.40
2017-07-17T19:38:46.637Z,13.20
2017-07-17T19:41:14.188Z,12.57
2017-07-17T19:43:41.668Z,12.60
2017-07-17T19:46:09.165Z,11.90
2017-07-17T19:48:36.662Z,12.67
2017-07-17T19:51:04.164Z,12.27
2017-07-17T19:53:31.679Z,12.93
2017-07-17T19:55:59.166Z,11.80
2017-07-17T19:58:26.752Z,10.70
2017-07-17T20:00:54.256Z,12.37
2017-07-17T20:03:21.773Z,10.27
2017-07-17T20:05:49.277Z,11.17
2017-07-17T20:08:17.597Z,11.10
2017-07-17T20:10:45.125Z,10.13
2017-07-17T20:13:12.645Z,10.20
2017-07-17T20:15:40.138Z,14.47
2017-07-17T20:18:07.645Z,20.63
2017-07-17T20:20:35.152Z,10.00
2017-07-17T20:23:02.695Z,8.87
2017-07-17T20:25:30.954Z,9.63
2017-07-17T20:27:58.467Z,8.87
2017-07-17T20:30:25.968Z,8.67
2017-07-17T20:32:53.490Z,9.60
2017-07-17T20:35:21.024Z,9.47
2017-07-17T20:37:49.320Z,8.77
2017-07-17T20:40:16.825Z,8.80
2017-07-17T20:42:44.363Z,8.57
2017-07-17T20:45:11.849Z,9.80
2017-07-17T20:47:39.368Z,8.00
2017-07-17T20:50:06.858Z,9.00
2017-07-17T20:52:34.402Z,7.90
2017-07-17T20:55:01.888Z,7.40
2017-07-17T20:57:30.222Z,8.90
2017-07-17T20:59:57.756Z,7.80
2017-07-17T21:02:25.244Z,7.40
2017-07-17T21:04:52.778Z,7.50
2017-07-17T21:07:20.293Z,7.13
2017-07-17T21:09:47.837Z,7.33
2017-07-17T21:12:15.360Z,6.43
2017-07-17T21:14:42.904Z,29.93
2017-07-17T21:17:10.420Z,10.00
2017-07-17T21:19:37.937Z,8.03
2017-07-17T21:22:05.431Z,6.33
2017-07-17T21:24:32.961Z,6.03
2017-07-17T21:27:00.482Z,6.30
2017-07-17T21:29:28.013Z,6.40
2017-07-17T21:31:55.505Z,5.60
2017-07-17T21:34:23.028Z,6.10
2017-07-17T21:36:50.522Z,5.43
2017-07-17T21:39:18.053Z,5.60
2017-07-17T21:41:45.576Z,6.27
2017-07-17T21:44:13.099Z,5.10
2017-07-17T21:46:40.639Z,5.40
2017-07-17T21:49:08.160Z,5.30
2017-07-17T21:51:35.700Z,5.33
2017-07-17T21:54:03.217Z,5.67
2017-07-17T21:56:30.703Z,5.00
2017-07-17T21:58:58.196Z,5.77
2017-07-17T22:01:25.700Z,5.20
2017-07-17T22:03:53.188Z,5.07
2017-07-17T22:06:20.707Z,5.20
2017-07-17T22:08:48.212Z,5.43
2017-07-17T22:11:15.733Z,5.47
2017-07-17T22:13:43.992Z,5.37
2017-07-17T22:16:11.508Z,4.57
2017-07-17T22:18:39.008Z,5.10
2017-07-17T22:21:06.605Z,4.43
2017-07-17T22:23:34.088Z,4.83
2017-07-17T22:26:01.602Z,4.20
2017-07-17T22:28:29.853Z,4.13
2017-07-17T22:30:57.389Z,3.97
2017-07-17T22:33:24.901Z,4.40
2017-07-17T22:35:52.439Z,4.30
2017-07-17T22:38:19.941Z,3.60
2017-07-17T22:40:47.457Z,3.90
2017-07-17T22:43:14.974Z,4.17
2017-07-17T22:45:42.500Z,4.30
2017-07-17T22:48:09.987Z,4.10
2017-07-17T22:50:37.512Z,4.10
2017-07-17T22:53:05.019Z,4.77
2017-07-17T22:55:32.505Z,4.17
2017-07-17T22:58:00.009Z,3.80
2017-07-17T23:00:27.529Z,3.90
2017-07-17T23:02:55.798Z,4.40
2017-07-17T23:05:23.296Z,4.20
2017-07-17T23:07:50.927Z,4.30
2017-07-17T23:10:18.413Z,3.80
2017-07-17T23:12:45.928Z,4.00
2017-07-17T23:15:13.450Z,3.90
2017-07-17T23:17:40.960Z,3.83
2017-07-17T23:20:08.438Z,4.43
2017-07-17T23:22:35.954Z,3.90
2017-07-17T23:25:03.472Z,3.93
2017-07-17T23:27:31.744Z,3.97
2017-07-17T23:29:59.251Z,3.60
2017-07-17T23:32:26.763Z,4.50
2017-07-17T23:34:54.262Z,4.30
2017-07-17T23:37:21.764Z,4.00
2017-07-17T23:39:49.256Z,3.93
2017-07-17T23:42:16.777Z,4.03
2017-07-17T23:44:44.264Z,4.90
2017-07-17T23:47:11.757Z,3.47
2017-07-17T23:49:39.241Z,3.70
2017-07-17T23:52:06.750Z,4.53
2017-07-17T23:54:34.277Z,4.30
2017-07-17T23:57:02.536Z,4.20
2017-07-17T23:59:30.045Z,3.87
